createdAt,value
2018-11-27T00:02:29.517Z,28.77
2018-11-27T00:05:35.005Z,27.20
2018-11-27T00:08:45.058Z,27.43
2018-11-27T00:11:49.777Z,28.60
2018-11-27T00:14:54.389Z,27.73
2018-11-27T00:17:59.051Z,28.40
2018-11-27T00:21:03.632Z,28.90
2018-11-27T00:24:08.277Z,29.03
2018-11-27T00:27:12.811Z,29.47
2018-11-27T00:30:19.846Z,28.30
2018-11-27T00:33:24.479Z,27.67
2018-11-27T00:36:29.036Z,26.30
2018-11-27T00:39:33.612Z,27.97
2018-11-27T00:42:38.193Z,26.57
2018-11-27T00:45:42.734Z,24.60
2018-11-27T00:48:47.274Z,25.77
2018-11-27T00:51:51.825Z,26.50
2018-11-27T00:54:58.725Z,24.67
2018-11-27T00:58:01.010Z,24.83
2018-11-27T01:01:05.622Z,23.50
2018-11-27T01:04:10.342Z,24.80
2018-11-27T01:07:14.917Z,24.00
2018-11-27T01:10:22.407Z,26.77
2018-11-27T01:13:27.036Z,25.33
2018-11-27T01:16:31.630Z,25.67
2018-11-27T01:19:36.264Z,28.27
2018-11-27T01:22:40.809Z,27.70
2018-11-27T01:25:45.385Z,26.53
2018-11-27T01:28:50.021Z,25.23
2018-11-27T01:31:54.643Z,25.73
2018-11-27T01:34:59.304Z,24.37
2018-11-27T01:38:03.834Z,25.87
2018-11-27T01:41:08.399Z,26.30
2018-11-27T01:44:12.933Z,28.17
2018-11-27T01:47:17.513Z,28.40
2018-11-27T01:50:22.177Z,27.33
2018-11-27T01:53:26.796Z,27.10
2018-11-27T01:56:31.341Z,30.17
2018-11-27T01:59:35.896Z,27.87
2018-11-27T02:02:40.461Z,29.07
2018-11-27T02:05:45.093Z,29.03
2018-11-27T02:08:49.683Z,28.30
2018-11-27T02:11:54.319Z,30.13
2018-11-27T02:14:58.953Z,28.63
2018-11-27T02:18:03.520Z,28.43
2018-11-27T02:21:08.218Z,28.73
2018-11-27T02:24:12.777Z,27.00
2018-11-27T02:27:17.424Z,28.77
2018-11-27T02:30:22.908Z,27.13
2018-11-27T02:33:27.496Z,28.27
2018-11-27T02:36:32.094Z,27.40
2018-11-27T02:39:36.661Z,28.57
2018-11-27T02:42:41.274Z,27.03
2018-11-27T02:45:45.834Z,26.23
2018-11-27T02:48:50.677Z,27.63
2018-11-27T02:51:55.243Z,28.10
2018-11-27T02:54:59.861Z,27.93
2018-11-27T02:58:04.466Z,28.80
2018-11-27T03:01:09.016Z,27.70
2018-11-27T03:04:13.622Z,28.80
2018-11-27T03:07:18.220Z,29.67
2018-11-27T03:10:22.869Z,29.37
2018-11-27T03:13:27.426Z,29.30
2018-11-27T03:16:32.069Z,28.73
2018-11-27T03:19:37.036Z,29.33
2018-11-27T03:22:41.860Z,29.10
2018-11-27T03:25:46.768Z,29.77
2018-11-27T03:28:52.278Z,27.13
2018-11-27T03:31:57.374Z,27.23
2018-11-27T03:35:02.334Z,27.33
2018-11-27T03:38:07.606Z,27.47
2018-11-27T03:41:12.631Z,29.47
2018-11-27T03:44:17.670Z,29.07
2018-11-27T03:47:22.283Z,27.97
2018-11-27T03:50:27.965Z,26.90
2018-11-27T03:53:32.522Z,27.37
2018-11-27T03:56:37.123Z,26.93
2018-11-27T03:59:41.798Z,28.53
2018-11-27T04:02:47.713Z,30.20
2018-11-27T04:05:52.305Z,30.43
2018-11-27T04:08:56.861Z,30.50
2018-11-27T04:12:01.426Z,29.27
2018-11-27T04:15:06.507Z,28.47
2018-11-27T04:18:11.047Z,28.83
2018-11-27T04:21:15.704Z,28.10
2018-11-27T04:24:20.274Z,29.87
2018-11-27T04:27:24.857Z,29.10
2018-11-27T04:30:29.396Z,28.90
2018-11-27T04:33:34.098Z,28.30
2018-11-27T04:36:38.652Z,30.43
2018-11-27T04:39:43.312Z,30.07
2018-11-27T04:42:47.893Z,32.13
2018-11-27T04:45:52.519Z,30.50
2018-11-27T04:48:57.109Z,29.83
2018-11-27T04:52:01.680Z,28.80
2018-11-27T04:55:07.022Z,30.07
2018-11-27T04:58:11.679Z,29.63
2018-11-27T05:01:16.321Z,32.33
2018-11-27T05:04:20.913Z,29.73
2018-11-27T05:07:25.607Z,30.90
2018-11-27T05:10:30.194Z,47.57
2018-11-27T05:13:34.741Z,54.03
2018-11-27T05:16:39.399Z,47.10
2018-11-27T05:19:43.997Z,48.40
2018-11-27T05:22:48.609Z,45.93
2018-11-27T05:25:53.299Z,34.80
2018-11-27T05:28:57.826Z,34.43
2018-11-27T05:32:02.497Z,33.90
2018-11-27T05:35:08.408Z,32.87
2018-11-27T05:38:13.126Z,33.23
2018-11-27T05:41:17.769Z,33.10
2018-11-27T05:44:22.365Z,33.83
2018-11-27T05:47:26.958Z,33.80
2018-11-27T05:50:31.622Z,33.60
2018-11-27T05:53:36.274Z,38.80
2018-11-27T05:56:40.832Z,38.37
2018-11-27T05:59:45.450Z,38.77
2018-11-27T06:02:51.566Z,38.80
2018-11-27T06:05:56.116Z,44.37
2018-11-27T06:09:00.674Z,38.33
2018-11-27T06:12:05.603Z,32.63
2018-11-27T06:15:12.646Z,36.73
2018-11-27T06:18:17.237Z,36.40
2018-11-27T06:21:21.795Z,35.47
2018-11-27T06:24:26.329Z,40.43
2018-11-27T06:27:30.903Z,38.90
2018-11-27T06:30:36.035Z,40.63
2018-11-27T06:33:40.611Z,45.20
2018-11-27T06:36:45.241Z,52.73
2018-11-27T06:39:49.774Z,57.83
2018-11-27T06:42:54.392Z,56.53
2018-11-27T06:45:58.922Z,50.73
2018-11-27T06:49:03.721Z,54.80
2018-11-27T06:52:08.279Z,47.63
2018-11-27T06:55:17.792Z,46.70
2018-11-27T06:58:22.375Z,44.87
2018-11-27T07:01:26.910Z,47.93
2018-11-27T07:04:31.498Z,48.00
2018-11-27T07:07:36.214Z,47.90
2018-11-27T07:10:42.340Z,49.40
2018-11-27T07:13:46.936Z,48.27
2018-11-27T07:16:51.496Z,47.23
2018-11-27T07:19:56.076Z,49.03
2018-11-27T07:23:00.746Z,59.37
2018-11-27T07:26:05.720Z,61.93
2018-11-27T07:29:10.327Z,58.10
2018-11-27T07:32:14.964Z,58.77
2018-11-27T07:35:19.921Z,61.83
2018-11-27T07:38:24.554Z,62.53
2018-11-27T07:41:29.129Z,58.50
2018-11-27T07:44:33.728Z,57.03
2018-11-27T07:47:38.277Z,60.00
2018-11-27T07:50:42.897Z,60.97
2018-11-27T07:53:47.498Z,52.73
2018-11-27T07:56:52.044Z,49.57
2018-11-27T07:59:56.668Z,47.13
2018-11-27T08:03:01.390Z,49.43
2018-11-27T08:06:06.424Z,48.40
2018-11-27T08:09:11.290Z,47.77
2018-11-27T08:12:15.830Z,48.23
2018-11-27T08:15:28.192Z,43.27
2018-11-27T08:18:32.772Z,41.03
2018-11-27T08:21:37.332Z,37.03
2018-11-27T08:24:41.953Z,37.47
2018-11-27T08:27:46.521Z,35.83
2018-11-27T08:30:51.145Z,37.23
2018-11-27T08:33:56.548Z,37.43
2018-11-27T08:37:01.160Z,39.77
2018-11-27T08:40:07.991Z,41.60
2018-11-27T08:43:12.606Z,41.27
2018-11-27T08:46:17.156Z,40.13
2018-11-27T08:49:21.770Z,36.20
2018-11-27T08:52:26.339Z,34.73
2018-11-27T08:55:38.910Z,35.43
2018-11-27T08:58:43.655Z,36.97
2018-11-27T09:01:48.187Z,37.40
2018-11-27T09:04:52.750Z,38.97
2018-11-27T09:07:57.320Z,37.97
2018-11-27T09:11:01.870Z,35.40
2018-11-27T09:14:06.666Z,35.23
2018-11-27T09:17:11.250Z,34.43
2018-11-27T09:20:15.822Z,34.17
2018-11-27T09:23:20.349Z,35.80
2018-11-27T09:26:24.890Z,36.97
2018-11-27T09:29:29.440Z,43.60
2018-11-27T09:32:34.073Z,44.43
2018-11-27T09:35:38.683Z,40.67
2018-11-27T09:38:43.306Z,41.33
2018-11-27T09:41:47.873Z,40.50
2018-11-27T09:44:52.498Z,40.07
2018-11-27T09:47:58.077Z,43.27
2018-11-27T09:51:02.617Z,41.13
2018-11-27T09:54:07.705Z,47.10
2018-11-27T09:57:12.305Z,39.30
2018-11-27T10:00:19.765Z,39.27
2018-11-27T10:03:24.357Z,40.00
2018-11-27T10:06:28.895Z,35.83
2018-11-27T10:09:33.424Z,36.57
2018-11-27T10:12:38.170Z,33.77
2018-11-27T10:15:42.745Z,34.13
2018-11-27T10:18:47.281Z,34.80
2018-11-27T10:21:51.856Z,37.93
2018-11-27T10:24:56.398Z,37.17
2018-11-27T10:28:01.002Z,40.40
2018-11-27T10:31:05.713Z,42.13
2018-11-27T10:34:10.260Z,47.07
2018-11-27T10:37:14.840Z,47.50
2018-11-27T10:40:19.432Z,46.77
2018-11-27T10:43:24.034Z,45.90
2018-11-27T10:46:28.557Z,45.07
2018-11-27T10:49:33.115Z,44.53
2018-11-27T10:52:37.968Z,45.43
2018-11-27T10:55:42.583Z,45.97
2018-11-27T10:58:47.272Z,40.33
2018-11-27T11:01:55.139Z,39.27
2018-11-27T11:04:59.765Z,40.97
2018-11-27T11:08:04.493Z,40.83
2018-11-27T11:11:09.594Z,42.87
2018-11-27T11:14:14.263Z,37.53
2018-11-27T11:17:18.882Z,37.00
2018-11-27T11:20:26.944Z,37.30
2018-11-27T11:23:31.513Z,39.23
2018-11-27T11:26:36.087Z,37.20
2018-11-27T11:29:40.669Z,38.27
2018-11-27T11:32:45.317Z,37.80
2018-11-27T11:35:49.902Z,38.10
2018-11-27T11:38:54.483Z,39.43
2018-11-27T11:41:59.097Z,40.70
2018-11-27T11:45:03.765Z,41.00
2018-11-27T11:48:08.278Z,44.53
2018-11-27T11:51:12.950Z,49.30
2018-11-27T11:54:17.501Z,44.53
2018-11-27T11:57:22.060Z,108.30
2018-11-27T12:00:31.825Z,69.13
2018-11-27T12:03:36.394Z,54.23
2018-11-27T12:06:41.048Z,41.27
2018-11-27T12:09:45.646Z,71.77
2018-11-27T12:12:50.501Z,46.57
2018-11-27T12:15:55.051Z,47.63
2018-11-27T12:18:59.621Z,46.37
2018-11-27T12:22:04.281Z,48.40
2018-11-27T12:25:11.315Z,48.73
2018-11-27T12:28:15.920Z,44.17
2018-11-27T12:31:20.537Z,43.10
2018-11-27T12:34:25.127Z,45.63
2018-11-27T12:37:29.766Z,48.60
2018-11-27T12:40:34.357Z,57.37
2018-11-27T12:43:38.899Z,51.93
2018-11-27T12:46:43.651Z,53.67
2018-11-27T12:49:48.217Z,66.03
2018-11-27T12:52:52.833Z,58.17
2018-11-27T12:55:57.400Z,61.50
2018-11-27T12:59:01.950Z,57.43
2018-11-27T13:02:07.008Z,60.27
2018-11-27T13:05:13.998Z,62.63
2018-11-27T13:08:19.885Z,64.77
2018-11-27T13:11:24.513Z,63.37
2018-11-27T13:14:29.078Z,58.20
2018-11-27T13:17:33.727Z,58.83
2018-11-27T13:20:38.625Z,59.00
2018-11-27T13:23:43.250Z,62.20
2018-11-27T13:26:48.128Z,59.30
2018-11-27T13:29:52.458Z,58.63
2018-11-27T13:32:59.840Z,57.73
2018-11-27T13:36:04.658Z,53.13
2018-11-27T13:39:20.174Z,50.97
2018-11-27T13:42:24.793Z,50.17
2018-11-27T13:45:29.390Z,42.40
2018-11-27T13:48:34.087Z,50.60
2018-11-27T13:51:38.633Z,48.07
2018-11-27T13:54:43.231Z,43.87
2018-11-27T13:57:47.805Z,64.63
2018-11-27T14:00:52.453Z,47.23
2018-11-27T14:03:56.988Z,37.67
2018-11-27T14:07:01.819Z,46.13
2018-11-27T14:10:08.405Z,41.13
2018-11-27T14:13:13.037Z,38.73
2018-11-27T14:16:17.597Z,41.93
2018-11-27T14:19:22.156Z,41.13
2018-11-27T14:22:26.797Z,43.10
2018-11-27T14:25:31.362Z,45.37
2018-11-27T14:28:35.992Z,50.80
2018-11-27T14:31:40.554Z,42.83
2018-11-27T14:34:45.187Z,41.80
2018-11-27T14:37:51.039Z,37.23
2018-11-27T14:40:55.665Z,39.47
2018-11-27T14:44:00.189Z,44.50
2018-11-27T14:47:04.987Z,52.97
2018-11-27T14:50:11.076Z,45.00
2018-11-27T14:53:15.705Z,45.47
2018-11-27T14:56:20.263Z,60.03
2018-11-27T14:59:24.871Z,57.47
2018-11-27T15:02:29.465Z,63.10
2018-11-27T15:05:38.251Z,52.43
2018-11-27T15:08:42.809Z,48.17
2018-11-27T15:11:47.468Z,55.93
2018-11-27T15:14:52.021Z,54.40
2018-11-27T15:17:56.588Z,48.83
2018-11-27T15:21:01.180Z,54.30
2018-11-27T15:24:06.157Z,94.17
2018-11-27T15:27:10.748Z,75.50
2018-11-27T15:30:18.508Z,74.30
2018-11-27T15:33:23.128Z,64.07
2018-11-27T15:36:27.685Z,53.83
2018-11-27T15:39:32.313Z,51.67
2018-11-27T15:42:36.850Z,54.70
2018-11-27T15:45:41.434Z,45.17
2018-11-27T15:48:46.029Z,43.53
2018-11-27T15:51:51.671Z,45.57
2018-11-27T15:54:55.313Z,48.47
2018-11-27T15:58:09.014Z,49.77
2018-11-27T16:01:13.601Z,48.17
2018-11-27T16:04:18.184Z,50.10
2018-11-27T16:07:22.745Z,50.33
2018-11-27T16:10:27.402Z,52.43
2018-11-27T16:13:31.957Z,59.47
2018-11-27T16:16:36.515Z,60.00
2018-11-27T16:19:41.069Z,60.10
2018-11-27T16:22:47.520Z,59.27
2018-11-27T16:25:52.206Z,51.73
2018-11-27T16:28:56.815Z,51.40
2018-11-27T16:32:01.898Z,46.67
2018-11-27T16:35:07.407Z,52.53
2018-11-27T16:38:12.035Z,72.10
2018-11-27T16:41:16.627Z,72.27
2018-11-27T16:44:21.249Z,50.83
2018-11-27T16:47:25.874Z,47.93
2018-11-27T16:50:30.452Z,43.40
2018-11-27T16:53:35.136Z,58.63
2018-11-27T16:56:40.341Z,44.97
2018-11-27T16:59:44.996Z,46.80
2018-11-27T17:02:50.601Z,50.37
2018-11-27T17:05:55.112Z,49.90
2018-11-27T17:08:59.795Z,54.00
2018-11-27T17:12:04.392Z,50.77
2018-11-27T17:15:12.515Z,50.47
2018-11-27T17:18:17.101Z,48.53
2018-11-27T17:21:21.698Z,47.03
2018-11-27T17:24:26.317Z,53.00
2018-11-27T17:27:30.935Z,48.50
2018-11-27T17:30:42.064Z,47.93
2018-11-27T17:33:55.533Z,47.07
2018-11-27T17:37:00.086Z,45.70
2018-11-27T17:40:04.877Z,48.60
2018-11-27T17:43:09.554Z,49.67
2018-11-27T17:46:14.129Z,52.33
2018-11-27T17:49:18.701Z,52.10
2018-11-27T17:52:23.321Z,50.80
2018-11-27T17:55:27.927Z,51.83
2018-11-27T17:58:32.580Z,89.37
2018-11-27T18:01:37.317Z,56.97
2018-11-27T18:04:41.944Z,52.33
2018-11-27T18:07:46.581Z,52.70
2018-11-27T18:10:51.139Z,56.77
2018-11-27T18:13:55.836Z,52.17
2018-11-27T18:17:00.371Z,50.37
2018-11-27T18:20:05.199Z,52.57
2018-11-27T18:23:09.900Z,52.70
2018-11-27T18:26:14.465Z,56.80
2018-11-27T18:29:19.173Z,59.07
2018-11-27T18:32:23.743Z,59.00
2018-11-27T18:35:28.394Z,59.50
2018-11-27T18:38:32.945Z,59.93
2018-11-27T18:41:37.513Z,53.00
2018-11-27T18:44:42.137Z,56.90
2018-11-27T18:47:46.905Z,53.93
2018-11-27T18:50:51.484Z,51.00
2018-11-27T18:53:57.079Z,52.83
2018-11-27T18:57:01.678Z,53.17
2018-11-27T19:00:11.486Z,51.00
2018-11-27T19:03:16.085Z,49.37
2018-11-27T19:06:20.706Z,51.07
2018-11-27T19:09:25.250Z,51.93
2018-11-27T19:12:29.880Z,53.03
2018-11-27T19:15:50.002Z,55.90
2018-11-27T19:18:54.624Z,52.87
2018-11-27T19:21:59.242Z,49.50
2018-11-27T19:25:03.909Z,52.17
2018-11-27T19:28:09.169Z,53.90
2018-11-27T19:31:13.780Z,47.37
2018-11-27T19:34:18.326Z,48.37
2018-11-27T19:37:22.974Z,48.37
2018-11-27T19:40:27.538Z,46.50
2018-11-27T19:43:32.223Z,49.30
2018-11-27T19:46:36.859Z,47.57
2018-11-27T19:49:41.466Z,47.20
2018-11-27T19:52:47.283Z,48.33
2018-11-27T19:55:51.896Z,47.77
2018-11-27T19:58:56.577Z,47.53
2018-11-27T20:02:01.226Z,47.70
2018-11-27T20:05:06.567Z,50.27
2018-11-27T20:08:15.684Z,47.33
2018-11-27T20:11:20.546Z,48.37
2018-11-27T20:14:25.285Z,49.47
2018-11-27T20:17:29.860Z,46.10
2018-11-27T20:20:34.548Z,44.97
2018-11-27T20:23:39.178Z,45.70
2018-11-27T20:26:43.893Z,45.80
2018-11-27T20:29:48.538Z,47.23
2018-11-27T20:33:02.366Z,47.50
2018-11-27T20:36:07.190Z,43.13
2018-11-27T20:39:11.872Z,46.27
2018-11-27T20:42:16.449Z,49.77
2018-11-27T20:45:22.353Z,55.17
2018-11-27T20:48:26.964Z,82.90
2018-11-27T20:51:31.594Z,68.10
2018-11-27T20:54:36.213Z,58.47
2018-11-27T20:57:41.643Z,58.00
2018-11-27T21:00:47.841Z,54.30
2018-11-27T21:03:52.444Z,54.87
2018-11-27T21:06:57.067Z,65.73
2018-11-27T21:10:01.725Z,79.97
2018-11-27T21:13:07.402Z,54.20
2018-11-27T21:16:12.036Z,56.03
2018-11-27T21:19:17.022Z,47.30
2018-11-27T21:22:21.667Z,47.50
2018-11-27T21:25:26.556Z,45.37
2018-11-27T21:28:31.138Z,48.17
2018-11-27T21:31:35.796Z,43.27
2018-11-27T21:34:40.367Z,43.53
2018-11-27T21:37:45.056Z,56.37
2018-11-27T21:40:49.730Z,50.67
2018-11-27T21:43:54.356Z,50.67
2018-11-27T21:46:59.033Z,47.90
2018-11-27T21:50:03.682Z,57.17
2018-11-27T21:53:08.289Z,52.90
2018-11-27T21:56:12.889Z,51.67
2018-11-27T21:59:17.538Z,51.63
2018-11-27T22:02:22.208Z,49.87
2018-11-27T22:05:26.985Z,52.57
2018-11-27T22:08:31.611Z,50.43
2018-11-27T22:11:36.294Z,66.67
2018-11-27T22:14:40.861Z,61.50
2018-11-27T22:17:46.352Z,48.30
2018-11-27T22:20:50.909Z,47.83
2018-11-27T22:23:55.506Z,46.23
2018-11-27T22:27:00.113Z,45.80
2018-11-27T22:30:06.142Z,42.77
2018-11-27T22:33:10.823Z,42.53
2018-11-27T22:36:15.367Z,50.80
2018-11-27T22:39:19.953Z,34.83
2018-11-27T22:42:24.523Z,38.53
2018-11-27T22:45:31.925Z,31.70
2018-11-27T22:48:36.569Z,25.30
2018-11-27T22:51:41.171Z,22.20
2018-11-27T22:54:45.871Z,17.03
2018-11-27T22:57:50.445Z,20.67
2018-11-27T23:00:55.070Z,17.00
2018-11-27T23:03:59.754Z,24.87
2018-11-27T23:07:04.332Z,12.30
2018-11-27T23:10:09.210Z,11.87
2018-11-27T23:13:13.757Z,10.70
2018-11-27T23:16:18.385Z,19.03
2018-11-27T23:19:22.997Z,11.10
2018-11-27T23:22:27.564Z,9.13
2018-11-27T23:25:32.152Z,11.93
2018-11-27T23:28:36.765Z,8.70
2018-11-27T23:31:41.289Z,8.03
2018-11-27T23:34:45.808Z,9.80
2018-11-27T23:37:50.415Z,5.33
2018-11-27T23:40:55.011Z,5.70
2018-11-27T23:43:59.570Z,4.07
2018-11-27T23:47:04.155Z,5.80
2018-11-27T23:50:10.482Z,5.33
2018-11-27T23:53:15.084Z,2.70
2018-11-27T23:56:19.713Z,2.00
2018-11-27T23:59:24.313Z,5.50
